createdAt,value
2022-07-29T00:00:45.772Z,100
2022-07-29T00:01:45.739Z,100
2022-07-29T00:02:45.778Z,100
2022-07-29T00:03:45.842Z,100
2022-07-29T00:04:45.832Z,100
2022-07-29T00:05:45.821Z,100
2022-07-29T00:06:45.910Z,100
2022-07-29T00:07:46.128Z,100
2022-07-29T00:08:45.871Z,100
2022-07-29T00:09:51.620Z,100
2022-07-29T00:10:49.394Z,100
2022-07-29T00:11:49.687Z,100
2022-07-29T00:12:49.409Z,100
2022-07-29T00:13:51.600Z,100
2022-07-29T00:14:49.706Z,100
2022-07-29T00:15:49.513Z,100
2022-07-29T00:16:49.597Z,100
2022-07-29T00:17:49.495Z,100
2022-07-29T00:18:49.583Z,100
2022-07-29T00:19:49.618Z,100
2022-07-29T00:20:49.619Z,100
2022-07-29T00:21:49.574Z,100
2022-07-29T00:22:49.603Z,100
2022-07-29T00:23:49.604Z,100
2022-07-29T00:24:49.827Z,100
2022-07-29T00:25:49.610Z,100
2022-07-29T00:26:49.654Z,100
2022-07-29T00:27:49.675Z,100
2022-07-29T00:28:49.700Z,100
2022-07-29T00:29:49.765Z,100
2022-07-29T00:30:49.889Z,100
2022-07-29T00:31:49.910Z,100
2022-07-29T00:32:49.773Z,100
2022-07-29T00:33:49.758Z,100
2022-07-29T00:34:49.653Z,100
2022-07-29T00:35:50.179Z,100
2022-07-29T00:36:49.819Z,100
2022-07-29T00:37:49.879Z,100
2022-07-29T00:38:52.925Z,100
2022-07-29T00:39:50.119Z,100
2022-07-29T00:40:49.839Z,100
2022-07-29T00:41:50.184Z,100
2022-07-29T00:42:51.223Z,100
2022-07-29T00:43:49.973Z,100
2022-07-29T00:44:49.980Z,100
2022-07-29T00:45:50.178Z,100
2022-07-29T00:46:50.165Z,100
2022-07-29T00:47:50.073Z,100
2022-07-29T00:48:50.213Z,100
2022-07-29T00:49:50.006Z,100
2022-07-29T00:50:50.722Z,100
2022-07-29T00:51:50.467Z,100
2022-07-29T00:52:51.149Z,100
2022-07-29T00:53:50.086Z,100
2022-07-29T00:54:50.068Z,100
2022-07-29T00:55:50.207Z,100
2022-07-29T00:56:50.295Z,100
2022-07-29T00:57:50.486Z,100
2022-07-29T00:58:51.623Z,100
2022-07-29T00:59:50.210Z,100
2022-07-29T01:00:50.474Z,100
2022-07-29T01:01:50.247Z,100
2022-07-29T01:02:50.274Z,100
2022-07-29T01:03:50.342Z,100
2022-07-29T01:04:50.510Z,100
2022-07-29T01:05:51.993Z,100
2022-07-29T01:06:50.386Z,100
2022-07-29T01:07:52.161Z,100
2022-07-29T01:08:50.577Z,100
2022-07-29T01:09:51.192Z,100
2022-07-29T01:10:51.742Z,100
2022-07-29T01:11:51.000Z,100
2022-07-29T01:12:52.229Z,100
2022-07-29T01:13:50.602Z,100
2022-07-29T01:14:51.688Z,100
2022-07-29T01:15:57.544Z,100
2022-07-29T01:17:01.034Z,100
2022-07-29T01:30:23.643Z,100
2022-07-29T01:31:25.379Z,100
2022-07-29T01:32:28.664Z,100
2022-07-29T01:33:26.239Z,100
2022-07-29T01:34:28.794Z,100
2022-07-29T01:38:30.191Z,100
2022-07-29T01:41:35.215Z,100
2022-07-29T01:46:45.410Z,100
2022-07-29T01:48:50.257Z,100
2022-07-29T01:49:48.789Z,100
2022-07-29T01:50:57.780Z,100
2022-07-29T01:52:55.306Z,100
2022-07-29T01:54:58.236Z,100
2022-07-29T01:55:58.250Z,100
2022-07-29T01:56:57.340Z,100
2022-07-29T01:57:57.331Z,100
2022-07-29T01:58:57.293Z,100
2022-07-29T01:59:57.353Z,100
2022-07-29T02:00:57.411Z,100
2022-07-29T02:01:58.305Z,100
2022-07-29T02:02:56.940Z,100
2022-07-29T02:03:57.775Z,100
2022-07-29T02:04:57.462Z,100
2022-07-29T02:05:57.714Z,100
2022-07-29T02:06:57.963Z,100
2022-07-29T02:07:57.086Z,100
2022-07-29T02:08:57.314Z,100
2022-07-29T02:09:57.992Z,100
2022-07-29T02:10:56.432Z,100
2022-07-29T02:11:57.186Z,100
2022-07-29T02:12:58.058Z,100
2022-07-29T02:13:57.154Z,100
2022-07-29T02:15:00.684Z,100
2022-07-29T02:15:58.419Z,100
2022-07-29T02:16:59.335Z,100
2022-07-29T02:18:58.142Z,100
2022-07-29T02:20:00.315Z,100
2022-07-29T02:20:59.793Z,100
2022-07-29T02:21:58.710Z,100
2022-07-29T02:22:58.253Z,100
2022-07-29T02:24:00.485Z,100
2022-07-29T02:24:59.121Z,100
2022-07-29T02:25:58.872Z,100
2022-07-29T02:27:00.224Z,100
2022-07-29T02:27:59.693Z,100
2022-07-29T02:28:58.424Z,100
2022-07-29T02:29:59.470Z,100
2022-07-29T02:30:59.568Z,100
2022-07-29T02:31:59.301Z,100
2022-07-29T02:32:58.995Z,100
2022-07-29T02:33:58.289Z,100
2022-07-29T02:34:59.550Z,100
2022-07-29T02:35:59.233Z,100
2022-07-29T02:36:57.807Z,100
2022-07-29T02:37:58.417Z,100
2022-07-29T02:38:58.890Z,100
2022-07-29T02:39:59.071Z,100
2022-07-29T02:40:59.411Z,100
2022-07-29T02:42:04.727Z,100
2022-07-29T02:43:02.713Z,100
2022-07-29T02:45:05.820Z,100
2022-07-29T02:46:06.523Z,100
2022-07-29T02:48:11.299Z,100
2022-07-29T02:49:11.046Z,100
2022-07-29T02:51:43.419Z,100
2022-07-29T02:52:19.493Z,100
2022-07-29T02:53:19.003Z,100
2022-07-29T02:54:21.286Z,100
2022-07-29T02:55:20.441Z,100
2022-07-29T02:56:22.099Z,100
2022-07-29T02:57:23.900Z,100
2022-07-29T02:59:25.860Z,100
2022-07-29T03:00:27.997Z,100
2022-07-29T03:01:26.595Z,100
2022-07-29T03:02:26.721Z,100
2022-07-29T03:03:26.585Z,100
2022-07-29T03:04:26.974Z,100
2022-07-29T03:05:25.388Z,100
2022-07-29T03:06:28.823Z,100
2022-07-29T03:07:25.602Z,100
2022-07-29T03:08:25.777Z,100
2022-07-29T03:09:25.785Z,100
2022-07-29T03:10:28.341Z,100
2022-07-29T03:11:45.867Z,100
2022-07-29T03:12:27.695Z,100
2022-07-29T03:13:28.298Z,100
2022-07-29T03:14:27.405Z,100
2022-07-29T03:15:28.014Z,100
2022-07-29T03:16:27.212Z,100
2022-07-29T03:17:27.462Z,100
2022-07-29T03:18:27.359Z,100
2022-07-29T03:19:27.655Z,100
2022-07-29T03:20:27.313Z,100
2022-07-29T03:21:27.157Z,100
2022-07-29T03:22:27.269Z,100
2022-07-29T03:23:27.162Z,100
2022-07-29T03:24:30.556Z,100
2022-07-29T03:25:29.555Z,100
2022-07-29T03:26:29.785Z,100
2022-07-29T03:27:29.962Z,100
2022-07-29T03:28:30.365Z,100
2022-07-29T03:29:34.034Z,100
2022-07-29T03:30:30.781Z,100
2022-07-29T03:31:30.964Z,100
2022-07-29T03:32:30.799Z,100
2022-07-29T03:33:30.872Z,100
2022-07-29T03:34:30.796Z,100
2022-07-29T03:35:30.718Z,100
2022-07-29T03:36:30.878Z,100
2022-07-29T03:37:30.931Z,100
2022-07-29T03:38:34.906Z,100
2022-07-29T03:39:34.185Z,100
2022-07-29T03:41:33.896Z,100
2022-07-29T03:42:34.705Z,100
2022-07-29T03:43:35.629Z,100
2022-07-29T03:44:33.753Z,100
2022-07-29T03:45:34.581Z,100
2022-07-29T03:46:34.835Z,100
2022-07-29T03:47:43.520Z,100
2022-07-29T03:48:40.138Z,100
2022-07-29T03:49:38.356Z,100
2022-07-29T03:50:37.593Z,100
2022-07-29T03:51:37.801Z,100
2022-07-29T03:52:37.714Z,100
2022-07-29T03:53:37.632Z,100
2022-07-29T03:54:37.726Z,100
2022-07-29T03:55:39.009Z,100
2022-07-29T03:56:42.825Z,100
2022-07-29T03:57:40.803Z,100
2022-07-29T03:58:40.006Z,100
2022-07-29T03:59:40.425Z,100
2022-07-29T04:00:40.608Z,100
2022-07-29T04:01:40.632Z,100
2022-07-29T04:02:40.700Z,100
2022-07-29T04:03:40.270Z,100
2022-07-29T04:04:39.941Z,100
2022-07-29T04:05:40.145Z,100
2022-07-29T04:06:44.633Z,100
2022-07-29T04:07:48.790Z,100
2022-07-29T04:08:45.791Z,100
2022-07-29T04:09:45.735Z,100
2022-07-29T04:10:45.788Z,100
2022-07-29T04:12:02.072Z,100
2022-07-29T04:12:50.890Z,100
2022-07-29T04:13:50.680Z,100
2022-07-29T04:14:50.740Z,100
2022-07-29T04:15:51.285Z,100
2022-07-29T04:16:50.707Z,100
2022-07-29T04:17:51.171Z,100
2022-07-29T04:18:50.762Z,100
2022-07-29T04:19:50.736Z,100
2022-07-29T04:20:50.877Z,100
2022-07-29T04:21:50.764Z,100
2022-07-29T04:22:50.830Z,100
2022-07-29T04:23:52.990Z,100
2022-07-29T04:24:51.125Z,100
2022-07-29T04:25:51.181Z,100
2022-07-29T04:26:51.065Z,100
2022-07-29T04:27:51.031Z,100
2022-07-29T04:28:51.066Z,100
2022-07-29T04:29:56.843Z,100
2022-07-29T04:30:54.286Z,100
2022-07-29T04:31:54.199Z,100
2022-07-29T04:32:54.354Z,100
2022-07-29T04:33:54.355Z,100
2022-07-29T04:34:54.293Z,100
2022-07-29T04:35:55.129Z,100
2022-07-29T04:36:55.783Z,100
2022-07-29T04:37:54.557Z,100
2022-07-29T04:38:54.360Z,100
2022-07-29T04:39:54.570Z,100
2022-07-29T04:40:54.633Z,100
2022-07-29T04:41:54.988Z,100
2022-07-29T04:42:55.040Z,100
2022-07-29T04:43:54.524Z,100
2022-07-29T04:44:54.343Z,100
2022-07-29T04:45:54.319Z,100
2022-07-29T04:46:54.289Z,100
2022-07-29T04:47:54.379Z,100
2022-07-29T04:48:54.449Z,100
2022-07-29T04:49:54.372Z,100
2022-07-29T04:50:54.334Z,100
2022-07-29T04:51:54.419Z,100
2022-07-29T04:52:54.615Z,100
2022-07-29T04:53:54.373Z,100
2022-07-29T04:54:54.588Z,100
2022-07-29T04:55:54.503Z,100
2022-07-29T04:56:54.492Z,100
2022-07-29T04:57:54.501Z,100
2022-07-29T04:58:54.444Z,100
2022-07-29T04:59:54.563Z,100
2022-07-29T05:00:54.646Z,100
2022-07-29T05:01:54.627Z,100
2022-07-29T05:02:54.592Z,100
2022-07-29T05:03:59.848Z,100
2022-07-29T05:04:57.428Z,100
2022-07-29T05:05:57.400Z,100
2022-07-29T05:06:57.543Z,100
2022-07-29T05:07:57.417Z,100
2022-07-29T05:08:57.566Z,100
2022-07-29T05:09:57.516Z,100
2022-07-29T05:10:57.473Z,100
2022-07-29T05:11:57.586Z,100
2022-07-29T05:12:57.511Z,99.28
2022-07-29T05:13:57.469Z,98.73
2022-07-29T05:14:57.525Z,99.83
2022-07-29T05:15:58.026Z,98.67
2022-07-29T05:16:57.539Z,98.64
2022-07-29T05:17:57.589Z,99.61
2022-07-29T05:18:57.601Z,99.27
2022-07-29T05:19:57.636Z,99.06
2022-07-29T05:20:57.618Z,99.47
2022-07-29T05:21:57.530Z,98.31
2022-07-29T05:22:58.810Z,98.73
2022-07-29T05:23:57.816Z,98.29
2022-07-29T05:24:57.736Z,97.72
2022-07-29T05:25:57.728Z,98.83
2022-07-29T05:26:57.710Z,97.94
2022-07-29T05:27:58.294Z,96.3
2022-07-29T05:28:57.925Z,96.62
2022-07-29T05:29:57.762Z,96.5
2022-07-29T05:30:57.815Z,95.08
2022-07-29T05:31:57.706Z,94.76
2022-07-29T05:32:57.734Z,96.23
2022-07-29T05:33:57.756Z,95.78
2022-07-29T05:34:57.745Z,94.88
2022-07-29T05:36:00.575Z,94.46
2022-07-29T05:36:58.630Z,95.59
2022-07-29T05:37:58.159Z,94.91
2022-07-29T05:38:58.119Z,93.75
2022-07-29T05:39:59.087Z,93.49
2022-07-29T05:40:59.417Z,93.66
2022-07-29T05:41:58.200Z,92.77
2022-07-29T05:42:58.196Z,93.74
2022-07-29T05:43:58.372Z,91.48
2022-07-29T05:44:58.235Z,91.66
2022-07-29T05:45:58.588Z,91
2022-07-29T05:46:58.299Z,89.77
2022-07-29T05:47:58.307Z,90.01
2022-07-29T05:48:58.315Z,90.84
2022-07-29T05:49:58.396Z,89.84
2022-07-29T05:50:58.360Z,90.31
2022-07-29T05:51:58.486Z,90.8
2022-07-29T05:52:58.362Z,89.35
2022-07-29T05:53:58.262Z,88.57
2022-07-29T05:54:58.388Z,88.54
2022-07-29T05:55:58.366Z,89.36
2022-07-29T05:56:58.482Z,89.06
2022-07-29T05:57:58.396Z,87.97
2022-07-29T05:58:58.459Z,87.67
2022-07-29T05:59:58.480Z,86.94
2022-07-29T06:00:58.694Z,87.18
2022-07-29T06:01:58.857Z,88.76
2022-07-29T06:02:58.488Z,86.66
2022-07-29T06:03:58.595Z,86.41
2022-07-29T06:04:58.899Z,87.54
2022-07-29T06:05:58.586Z,87.41
2022-07-29T06:06:58.564Z,85.54
2022-07-29T06:07:58.750Z,85.73
2022-07-29T06:08:58.504Z,86.05
2022-07-29T06:09:58.567Z,85.04
2022-07-29T06:10:58.592Z,83.71
2022-07-29T06:11:58.607Z,84.36
2022-07-29T06:12:58.638Z,85.11
2022-07-29T06:13:58.625Z,86.68
2022-07-29T06:14:58.729Z,86.15
2022-07-29T06:15:59.438Z,85.18
2022-07-29T06:16:58.676Z,85.81
2022-07-29T06:17:59.038Z,87.53
2022-07-29T06:18:58.689Z,86.72
2022-07-29T06:19:58.750Z,84.92
2022-07-29T06:20:58.625Z,83.35
2022-07-29T06:21:59.014Z,82.73
2022-07-29T06:22:58.963Z,82.21
2022-07-29T06:23:58.770Z,84.57
2022-07-29T06:24:58.871Z,82.92
2022-07-29T06:25:58.743Z,84.19
2022-07-29T06:26:58.766Z,82.6
2022-07-29T06:27:59.008Z,83.15
2022-07-29T06:28:58.778Z,82.36
2022-07-29T06:29:58.957Z,82.01
2022-07-29T06:30:59.034Z,83.11
2022-07-29T06:31:58.778Z,81.35
2022-07-29T06:32:59.109Z,81.55
2022-07-29T06:33:58.882Z,81.61
2022-07-29T06:35:12.045Z,82.58
2022-07-29T06:36:00.307Z,82.31
2022-07-29T06:37:00.398Z,83.19
2022-07-29T06:38:00.405Z,79.66
2022-07-29T06:39:00.375Z,79.62
2022-07-29T06:40:00.403Z,80.7
2022-07-29T06:41:01.013Z,79.24
2022-07-29T06:42:00.440Z,80.18
2022-07-29T06:43:00.539Z,78.91
2022-07-29T06:44:00.442Z,77.83
2022-07-29T06:45:00.476Z,80.33
2022-07-29T06:46:01.444Z,79.39
2022-07-29T06:47:01.264Z,80.84
2022-07-29T06:48:00.498Z,78.12
2022-07-29T06:49:00.690Z,78.44
2022-07-29T06:50:00.655Z,77.47
2022-07-29T06:51:01.142Z,77.37
2022-07-29T06:52:00.662Z,76.89
2022-07-29T06:53:00.637Z,76.6
2022-07-29T06:54:02.762Z,77.96
2022-07-29T06:55:05.434Z,77.52
2022-07-29T06:56:05.827Z,76.27
2022-07-29T06:57:04.995Z,79.42
2022-07-29T06:58:04.975Z,77.66
2022-07-29T06:59:05.497Z,74.4
2022-07-29T07:00:05.509Z,76.66
2022-07-29T07:01:06.038Z,74.38
2022-07-29T07:02:05.216Z,74.96
2022-07-29T07:03:04.997Z,73.76
2022-07-29T07:04:05.031Z,74.74
2022-07-29T07:05:05.853Z,77.68
2022-07-29T07:06:05.076Z,77.9
2022-07-29T07:07:04.975Z,75.25
2022-07-29T07:08:05.382Z,75.53
2022-07-29T07:09:05.215Z,76.9
2022-07-29T07:10:05.511Z,76.21
2022-07-29T07:11:05.108Z,76.59
2022-07-29T07:12:05.602Z,78.47
2022-07-29T07:13:05.522Z,74.67
2022-07-29T07:14:05.234Z,75.22
2022-07-29T07:15:05.652Z,74.53
2022-07-29T07:16:05.454Z,75.83
2022-07-29T07:17:05.227Z,74.32
2022-07-29T07:18:06.107Z,74.6
2022-07-29T07:19:05.166Z,75.22
2022-07-29T07:20:06.287Z,75.07
2022-07-29T07:21:05.254Z,76.98
2022-07-29T07:22:05.200Z,72.58
2022-07-29T07:23:05.190Z,74.89
2022-07-29T07:24:05.703Z,73.68
2022-07-29T07:25:05.573Z,72.31
2022-07-29T07:26:05.263Z,75.19
2022-07-29T07:27:05.287Z,74.51
2022-07-29T07:28:05.281Z,74.6
2022-07-29T07:29:05.356Z,74.14
2022-07-29T07:30:06.399Z,72.03
2022-07-29T07:31:06.017Z,72.17
2022-07-29T07:32:05.744Z,73.49
2022-07-29T07:33:05.414Z,71.86
2022-07-29T07:34:05.527Z,74.91
2022-07-29T07:35:06.397Z,69.84
2022-07-29T07:36:05.653Z,71.75
2022-07-29T07:37:05.649Z,73.51
2022-07-29T07:38:05.391Z,73.13
2022-07-29T07:39:05.509Z,74.05
2022-07-29T07:40:05.985Z,73.57
2022-07-29T07:41:05.475Z,74.55
2022-07-29T07:42:05.755Z,72.14
2022-07-29T07:43:05.711Z,71.86
2022-07-29T07:44:05.480Z,73.67
2022-07-29T07:45:13.495Z,74.02
2022-07-29T07:46:10.321Z,75.04
2022-07-29T07:47:12.517Z,75.64
2022-07-29T07:48:10.277Z,74.54
2022-07-29T07:49:10.336Z,71.57
2022-07-29T07:50:16.337Z,72.7
2022-07-29T07:51:15.209Z,71.99
2022-07-29T07:52:16.678Z,75.22
2022-07-29T07:53:15.078Z,76.21
2022-07-29T07:54:15.576Z,75.97
2022-07-29T07:55:15.235Z,72.85
2022-07-29T07:56:16.082Z,72.85
2022-07-29T07:57:15.781Z,72.87
2022-07-29T07:58:15.281Z,71.18
2022-07-29T07:59:15.477Z,71.57
2022-07-29T08:00:16.287Z,71.07
2022-07-29T08:01:15.242Z,73.31
2022-07-29T08:02:15.546Z,72.73
2022-07-29T08:03:16.600Z,72.41
2022-07-29T08:04:15.643Z,71.08
2022-07-29T08:05:15.318Z,72.05
2022-07-29T08:06:15.370Z,71.58
2022-07-29T08:07:15.384Z,72.91
2022-07-29T08:08:15.385Z,72.56
2022-07-29T08:09:28.654Z,73.78
2022-07-29T08:10:17.673Z,70.61
2022-07-29T08:11:17.198Z,72.51
2022-07-29T08:12:17.182Z,72.33
2022-07-29T08:13:17.054Z,71.66
2022-07-29T08:14:17.549Z,72.75
2022-07-29T08:15:17.069Z,73.08
2022-07-29T08:16:17.342Z,73.04
2022-07-29T08:17:17.110Z,72.26
2022-07-29T08:18:17.125Z,73.68
2022-07-29T08:19:17.241Z,73.81
2022-07-29T08:20:17.211Z,75.05
2022-07-29T08:21:17.318Z,74.22
2022-07-29T08:22:17.219Z,72.51
2022-07-29T08:23:17.164Z,72.32
2022-07-29T08:24:17.179Z,74.54
2022-07-29T08:25:17.145Z,72.57
2022-07-29T08:26:17.284Z,70.26
2022-07-29T08:27:42.086Z,74
2022-07-29T08:28:18.747Z,69.16
2022-07-29T08:29:20.146Z,70.9
2022-07-29T08:30:18.939Z,72.51
2022-07-29T08:31:19.052Z,73.11
2022-07-29T08:32:36.944Z,71.76
2022-07-29T08:33:20.232Z,71.87
2022-07-29T08:34:21.562Z,66.56
2022-07-29T08:35:25.052Z,67.04
2022-07-29T08:36:24.327Z,66.87
2022-07-29T08:37:24.394Z,66.68
2022-07-29T08:38:24.305Z,67.94
2022-07-29T08:39:24.988Z,68.44
2022-07-29T08:40:31.877Z,68.47
2022-07-29T08:41:29.245Z,69.96
2022-07-29T08:42:29.149Z,71.39
2022-07-29T08:43:29.523Z,67.09
2022-07-29T08:44:30.736Z,70.19
2022-07-29T08:45:30.625Z,67.26
2022-07-29T08:46:29.290Z,64.36
2022-07-29T08:47:29.338Z,65.98
2022-07-29T08:48:29.341Z,64.12
2022-07-29T08:49:29.451Z,66.59
2022-07-29T08:50:29.550Z,67.67
2022-07-29T08:51:30.734Z,68.33
2022-07-29T08:52:33.470Z,68.58
2022-07-29T08:53:30.413Z,68.97
2022-07-29T08:54:30.275Z,67.57
2022-07-29T08:55:31.239Z,69.03
2022-07-29T08:56:31.088Z,69.22
2022-07-29T08:57:31.803Z,70.2
2022-07-29T08:58:36.835Z,70.51
2022-07-29T08:59:35.234Z,69.41
2022-07-29T09:00:34.080Z,69.21
2022-07-29T09:01:36.048Z,65.83
2022-07-29T09:02:36.499Z,64.29
2022-07-29T09:03:35.467Z,69.83
2022-07-29T09:04:35.404Z,65.97
2022-07-29T09:05:38.179Z,66.51
2022-07-29T09:06:38.211Z,67.02
2022-07-29T09:07:37.335Z,63.86
2022-07-29T09:08:37.123Z,65.03
2022-07-29T09:09:37.313Z,63.86
2022-07-29T09:10:37.335Z,61.43
2022-07-29T09:11:37.712Z,64.61
2022-07-29T09:12:38.157Z,62.94
2022-07-29T09:13:37.204Z,59.41
2022-07-29T09:14:37.286Z,59.43
2022-07-29T09:15:37.381Z,57.46
2022-07-29T09:17:41.676Z,61.2
2022-07-29T09:18:41.877Z,59.39
2022-07-29T09:19:45.519Z,59.28
2022-07-29T09:20:52.636Z,60.8
2022-07-29T09:21:44.759Z,59.4
2022-07-29T09:22:45.104Z,60.78
2022-07-29T09:24:48.583Z,60.16
2022-07-29T09:25:48.634Z,59.07
2022-07-29T09:26:48.602Z,60.04
2022-07-29T09:27:51.183Z,61.06
2022-07-29T09:28:48.699Z,62.95
2022-07-29T09:30:56.798Z,58.93
2022-07-29T09:31:54.216Z,59.65
2022-07-29T09:32:56.981Z,58.77
2022-07-29T09:33:53.405Z,60.5
2022-07-29T09:36:05.887Z,61.42
2022-07-29T09:37:03.427Z,62.02
2022-07-29T09:38:12.408Z,58.42
2022-07-29T09:39:04.516Z,58.19
2022-07-29T09:40:12.077Z,60.38
2022-07-29T09:41:09.075Z,60.21
2022-07-29T09:42:09.117Z,59.38
2022-07-29T09:43:12.629Z,59.61
2022-07-29T09:44:09.674Z,62.39
2022-07-29T09:45:10.635Z,60.84
2022-07-29T09:46:13.252Z,62.82
2022-07-29T09:47:10.422Z,63.16
2022-07-29T09:49:13.989Z,61.88
2022-07-29T09:50:12.610Z,60.69
2022-07-29T09:51:25.517Z,60.25
2022-07-29T09:52:15.346Z,62.48
2022-07-29T09:55:19.772Z,60.45
2022-07-29T09:56:19.031Z,60.42
2022-07-29T09:57:30.552Z,59.42
2022-07-29T09:58:23.412Z,63.65
2022-07-29T09:59:22.826Z,65
2022-07-29T10:00:22.847Z,59.85
2022-07-29T10:01:29.295Z,59.49
2022-07-29T10:02:30.173Z,59.33
2022-07-29T10:03:26.890Z,63.05
2022-07-29T10:05:36.229Z,57.96
2022-07-29T10:06:33.478Z,56.37
2022-07-29T10:08:35.917Z,59.17
2022-07-29T10:09:36.433Z,58.38
2022-07-29T10:10:36.604Z,58.8
2022-07-29T10:11:48.984Z,56.03
2022-07-29T10:12:49.090Z,57.11
2022-07-29T10:13:42.017Z,55.37
2022-07-29T10:14:41.841Z,58.39
2022-07-29T10:15:42.159Z,58.15
2022-07-29T10:16:41.364Z,59.02
2022-07-29T10:17:41.984Z,59.69
2022-07-29T10:18:42.051Z,58.4
2022-07-29T10:19:41.195Z,58.82
2022-07-29T10:20:41.070Z,58.82
2022-07-29T10:21:41.246Z,57.28
2022-07-29T10:22:52.974Z,57.6
2022-07-29T10:23:47.075Z,61.49
2022-07-29T10:24:45.877Z,58.45
2022-07-29T10:25:46.851Z,59.91
2022-07-29T10:26:46.067Z,60.37
2022-07-29T10:27:46.508Z,59.45
2022-07-29T10:28:46.080Z,60.57
2022-07-29T10:29:45.851Z,60.45
2022-07-29T10:30:46.956Z,60.18
2022-07-29T10:39:24.571Z,62.04
2022-07-29T10:42:19.898Z,61.64
2022-07-29T10:44:23.290Z,58.91
2022-07-29T10:45:17.848Z,60.58
2022-07-29T10:46:15.832Z,59.54
2022-07-29T10:47:25.078Z,61.59
2022-07-29T10:48:17.087Z,57.44
2022-07-29T10:49:24.397Z,58.74
2022-07-29T10:50:21.791Z,58.56
2022-07-29T10:51:21.853Z,57.43
2022-07-29T10:52:26.665Z,60.95
2022-07-29T10:53:22.593Z,59.06
2022-07-29T10:56:32.764Z,59.77
2022-07-29T10:57:54.152Z,57.44
2022-07-29T10:58:32.158Z,57.31
2022-07-29T10:59:36.233Z,58.39
2022-07-29T11:00:33.298Z,58.89
2022-07-29T11:01:37.534Z,60.06
2022-07-29T11:03:49.163Z,55.3
2022-07-29T11:05:54.175Z,55.15
2022-07-29T11:11:58.976Z,55.51
2022-07-29T11:12:58.518Z,54.54
2022-07-29T11:13:58.517Z,55.51
2022-07-29T11:15:01.517Z,54.37
2022-07-29T11:15:58.806Z,55.25
2022-07-29T11:16:59.850Z,56.76
2022-07-29T11:18:07.750Z,55.31
2022-07-29T11:22:10.733Z,57.17
2022-07-29T11:24:18.609Z,57.72
2022-07-29T11:25:17.725Z,56.58
2022-07-29T11:26:20.478Z,59.24
2022-07-29T11:27:20.466Z,55.16
2022-07-29T11:28:22.407Z,55.8
2022-07-29T11:29:23.073Z,56.32
2022-07-29T11:30:22.147Z,59.06
2022-07-29T11:31:35.657Z,56.56
2022-07-29T11:32:23.773Z,56.83
2022-07-29T11:33:54.514Z,55.74
2022-07-29T11:35:38.395Z,54.76
2022-07-29T11:36:31.741Z,54.26
2022-07-29T11:37:31.743Z,55.2
2022-07-29T11:38:32.283Z,55.13
2022-07-29T11:39:37.192Z,54.35
2022-07-29T11:40:34.760Z,55.33
2022-07-29T11:41:34.750Z,53.15
2022-07-29T11:42:41.810Z,52.91
2022-07-29T11:43:50.598Z,54.53
2022-07-29T11:47:47.847Z,55.15
2022-07-29T11:48:44.551Z,57.88
2022-07-29T11:49:45.396Z,56.1
2022-07-29T11:50:45.636Z,55.4
2022-07-29T11:51:51.300Z,55.65
2022-07-29T11:52:50.068Z,57.09
2022-07-29T11:53:48.468Z,57.08
2022-07-29T11:54:58.555Z,56.22
2022-07-29T11:55:55.786Z,57.32
2022-07-29T11:56:52.719Z,57
2022-07-29T11:58:03.816Z,56.55
2022-07-29T12:00:04.606Z,56.44
2022-07-29T12:01:04.692Z,56.91
2022-07-29T12:02:33.165Z,57.51
2022-07-29T12:03:04.672Z,58.04
2022-07-29T12:04:03.983Z,56.08
2022-07-29T12:05:10.447Z,55.09
2022-07-29T12:07:15.297Z,55.74
2022-07-29T12:09:16.504Z,56.62
2022-07-29T12:10:19.977Z,55.83
2022-07-29T12:11:21.347Z,54.49
2022-07-29T12:12:19.286Z,56.65
2022-07-29T12:13:20.447Z,54.27
2022-07-29T12:14:31.984Z,55.59
2022-07-29T12:15:24.220Z,54.46
2022-07-29T12:16:35.818Z,56.99
2022-07-29T12:17:32.715Z,55.47
2022-07-29T12:18:30.260Z,56.55
2022-07-29T12:19:42.649Z,57.04
2022-07-29T12:20:31.770Z,57.43
2022-07-29T12:23:37.450Z,58.67
2022-07-29T12:25:43.278Z,58.39
2022-07-29T12:27:46.508Z,56.7
2022-07-29T12:28:47.073Z,58.85
2022-07-29T12:29:48.040Z,60.94
2022-07-29T12:30:47.192Z,60.77
2022-07-29T12:31:47.224Z,60.07
2022-07-29T12:32:47.662Z,59.61
2022-07-29T12:33:52.809Z,59.36
2022-07-29T12:34:49.484Z,59.93
2022-07-29T12:36:03.796Z,60.83
2022-07-29T12:36:53.668Z,61.18
2022-07-29T12:37:54.030Z,60.79
2022-07-29T12:38:53.816Z,60.37
2022-07-29T12:39:53.738Z,60.33
2022-07-29T12:40:54.585Z,61.91
2022-07-29T12:41:54.126Z,60.05
2022-07-29T12:43:06.572Z,61.8
2022-07-29T12:43:58.548Z,61.26
2022-07-29T12:44:58.720Z,62.49
2022-07-29T12:45:58.832Z,62.52
2022-07-29T12:47:04.692Z,61.93
2022-07-29T12:48:04.200Z,61.31
2022-07-29T12:49:04.140Z,61.62
2022-07-29T12:50:11.975Z,61.09
2022-07-29T12:51:04.736Z,60.43
2022-07-29T12:54:10.472Z,61.8
2022-07-29T12:55:08.757Z,62.61
2022-07-29T12:57:20.162Z,65.41
2022-07-29T12:59:21.722Z,69.24
2022-07-29T13:00:24.242Z,68.6
2022-07-29T13:01:21.521Z,69.82
2022-07-29T13:02:22.418Z,71.14
2022-07-29T13:03:21.369Z,72.34
2022-07-29T13:04:28.140Z,73.73
2022-07-29T13:05:25.038Z,73.64
2022-07-29T13:06:35.999Z,78.53
2022-07-29T13:07:54.256Z,75.79
2022-07-29T13:08:28.337Z,77.36
2022-07-29T13:09:37.659Z,78.3
2022-07-29T13:10:29.132Z,76.5
2022-07-29T13:12:30.739Z,76.47
2022-07-29T13:13:30.676Z,74.44
2022-07-29T13:14:32.123Z,76.41
2022-07-29T13:15:30.825Z,77.73
2022-07-29T13:16:30.849Z,80.18
2022-07-29T13:18:35.618Z,79.11
2022-07-29T13:19:39.964Z,80.91
2022-07-29T13:20:36.524Z,77.35
2022-07-29T13:21:36.804Z,77.64
2022-07-29T13:22:36.498Z,75.05
2022-07-29T13:23:38.295Z,74.92
2022-07-29T13:25:38.289Z,75.35
2022-07-29T13:26:40.857Z,73.21
2022-07-29T13:27:38.790Z,73.1
2022-07-29T13:28:38.511Z,72.01
2022-07-29T13:29:38.092Z,70.86
2022-07-29T13:30:38.581Z,68.38
2022-07-29T13:31:41.238Z,65.8
2022-07-29T13:32:41.242Z,66.12
2022-07-29T13:33:41.311Z,66.62
2022-07-29T13:34:41.279Z,68.02
2022-07-29T13:35:41.289Z,66.35
2022-07-29T13:36:41.732Z,65.4
2022-07-29T13:37:41.512Z,67.58
2022-07-29T13:38:41.366Z,64.83
2022-07-29T13:39:41.331Z,65.15
2022-07-29T13:40:41.960Z,61.51
2022-07-29T13:41:41.361Z,58.83
2022-07-29T13:42:41.771Z,61.65
2022-07-29T13:43:41.424Z,58.58
2022-07-29T13:44:41.450Z,59.41
2022-07-29T13:45:41.456Z,58.49
2022-07-29T13:46:41.417Z,62.98
2022-07-29T13:47:44.780Z,60.42
2022-07-29T13:48:44.331Z,55.51
2022-07-29T13:49:44.619Z,57.89
2022-07-29T13:50:44.282Z,60.13
2022-07-29T13:51:44.333Z,61.46
2022-07-29T13:52:44.294Z,60.56
2022-07-29T13:53:46.721Z,60.21
2022-07-29T13:54:46.897Z,62.18
2022-07-29T13:55:46.631Z,63.38
2022-07-29T13:56:46.820Z,57.29
2022-07-29T13:57:46.927Z,58.43
2022-07-29T13:58:46.772Z,57.56
2022-07-29T13:59:50.537Z,58.58
2022-07-29T14:00:50.510Z,58.64
2022-07-29T14:01:50.124Z,59.66
2022-07-29T14:02:50.149Z,60.13
2022-07-29T14:03:50.045Z,60.62
2022-07-29T14:04:50.170Z,61.16
2022-07-29T14:05:50.129Z,60.89
2022-07-29T14:06:50.590Z,60.81
2022-07-29T14:07:50.159Z,60.52
2022-07-29T14:08:50.153Z,62.74
2022-07-29T14:09:50.241Z,62.32
2022-07-29T14:10:50.232Z,63.15
2022-07-29T14:11:50.233Z,61.91
2022-07-29T14:12:50.196Z,62.79
2022-07-29T14:13:50.210Z,62.31
2022-07-29T14:14:50.269Z,59.1
2022-07-29T14:15:50.201Z,60.5
2022-07-29T14:16:52.328Z,61.94
2022-07-29T14:17:50.546Z,61.15
2022-07-29T14:18:50.286Z,62.76
2022-07-29T14:19:50.308Z,61.59
2022-07-29T14:20:50.490Z,61.2
2022-07-29T14:21:50.309Z,61.06
2022-07-29T14:22:50.411Z,61.5
2022-07-29T14:23:50.506Z,60.31
2022-07-29T14:24:50.323Z,60.11
2022-07-29T14:25:50.325Z,59.95
2022-07-29T14:26:50.572Z,57.35
2022-07-29T14:27:50.438Z,58.24
2022-07-29T14:28:51.107Z,58.95
2022-07-29T14:29:50.529Z,59.71
2022-07-29T14:30:50.580Z,60.51
2022-07-29T14:31:50.598Z,60.46
2022-07-29T14:32:50.538Z,62.37
2022-07-29T14:33:50.602Z,61.61
2022-07-29T14:34:50.589Z,61.21
2022-07-29T14:35:50.607Z,61.68
2022-07-29T14:36:50.588Z,60.56
2022-07-29T14:37:50.646Z,60.68
2022-07-29T14:38:50.665Z,60.58
2022-07-29T14:39:50.663Z,59.56
2022-07-29T14:40:50.929Z,61.17